createdAt,value
2023-01-28T00:01:23.428Z,3.30
2023-01-28T00:03:51.929Z,3.30
2023-01-28T00:06:21.635Z,3.20
2023-01-28T00:08:48.814Z,3.20
2023-01-28T00:11:15.472Z,3.10
2023-01-28T00:16:10.098Z,3.10
2023-01-28T00:18:37.543Z,3.00
2023-01-28T00:21:04.150Z,2.90
2023-01-28T00:23:33.881Z,2.90
2023-01-28T00:26:01.990Z,2.80
2023-01-28T00:33:24.103Z,2.70
2023-01-28T00:36:01.242Z,2.80
2023-01-28T00:38:29.078Z,2.70
2023-01-28T00:43:23.177Z,2.70
2023-01-28T00:50:45.534Z,2.70
2023-01-28T00:55:39.403Z,2.70
2023-01-28T01:00:33.290Z,2.80
2023-01-28T01:03:00.080Z,2.70
2023-01-28T01:07:53.867Z,2.50
2023-01-28T01:12:49.202Z,2.30
2023-01-28T01:15:17.073Z,2.40
2023-01-28T01:17:46.378Z,2.30
2023-01-28T01:20:19.210Z,2.30
2023-01-28T01:22:46.444Z,2.30
2023-01-28T01:25:15.614Z,2.10
2023-01-28T01:27:43.407Z,2.20
2023-01-28T01:30:12.574Z,2.20
2023-01-28T01:32:39.322Z,2.20
2023-01-28T01:35:08.130Z,2.20
2023-01-28T01:37:37.923Z,2.10
2023-01-28T01:40:05.654Z,2.10
2023-01-28T01:42:33.455Z,2.10
2023-01-28T01:47:42.058Z,2.10
2023-01-28T01:50:20.589Z,2.10
2023-01-28T01:52:49.693Z,2.00
2023-01-28T01:55:20.891Z,2.00
2023-01-28T01:57:49.700Z,2.00
2023-01-28T02:00:17.199Z,2.00
2023-01-28T02:02:48.284Z,1.80
2023-01-28T02:05:18.279Z,1.90
2023-01-28T02:07:46.731Z,1.80
2023-01-28T02:10:14.158Z,1.90
2023-01-28T02:12:47.601Z,1.90
2023-01-28T02:15:20.550Z,1.90
2023-01-28T02:17:49.500Z,1.90
2023-01-28T02:20:23.119Z,1.80
2023-01-28T02:23:21.598Z,1.80
2023-01-28T02:26:12.861Z,1.70
2023-01-28T02:28:49.657Z,1.70
2023-01-28T02:31:20.089Z,1.70
2023-01-28T02:34:02.612Z,1.70
2023-01-28T02:36:56.800Z,1.70
2023-01-28T02:39:37.580Z,1.70
2023-01-28T02:42:13.477Z,1.60
2023-01-28T02:47:30.779Z,1.60
2023-01-28T02:50:01.064Z,1.60
2023-01-28T02:53:13.328Z,1.60
2023-01-28T02:55:45.829Z,1.60
2023-01-28T02:58:36.547Z,1.60
2023-01-28T03:04:07.391Z,1.50
2023-01-28T03:06:40.081Z,1.50
2023-01-28T03:09:28.297Z,1.50
2023-01-28T03:12:21.689Z,1.50
2023-01-28T03:15:31.163Z,1.50
2023-01-28T03:18:37.975Z,1.50
2023-01-28T03:21:47.187Z,1.50
2023-01-28T03:24:56.090Z,1.40
2023-01-28T03:30:39.304Z,1.50
2023-01-28T03:33:25.526Z,1.50
2023-01-28T03:38:48.794Z,1.60
2023-01-28T03:41:22.991Z,1.60
2023-01-28T03:43:50.350Z,1.50
2023-01-28T03:46:18.424Z,1.50
2023-01-28T03:48:45.993Z,1.50
2023-01-28T03:56:07.455Z,1.40
2023-01-28T04:01:14.048Z,1.40
2023-01-28T04:03:40.805Z,1.50
2023-01-28T04:06:09.502Z,1.50
2023-01-28T04:08:36.232Z,1.50
2023-01-28T04:11:20.001Z,1.50
2023-01-28T04:16:16.168Z,1.50
2023-01-28T04:18:43.928Z,1.50
2023-01-28T04:21:11.509Z,1.50
2023-01-28T04:23:38.630Z,1.50
2023-01-28T04:38:21.009Z,1.60
2023-01-28T04:40:52.313Z,1.70
2023-01-28T04:43:19.956Z,1.80
2023-01-28T04:45:48.144Z,1.80
2023-01-28T04:48:15.843Z,1.90
2023-01-28T04:50:42.792Z,2.00
2023-01-28T04:53:10.401Z,2.00
2023-01-28T04:58:04.337Z,2.10
2023-01-28T05:02:58.074Z,2.10
2023-01-28T05:07:53.918Z,2.20
2023-01-28T05:10:21.109Z,2.20
2023-01-28T05:12:48.785Z,2.20
2023-01-28T05:15:19.857Z,2.20
2023-01-28T05:17:46.691Z,2.20
2023-01-28T05:20:14.523Z,2.10
2023-01-28T05:22:42.441Z,2.20
2023-01-28T05:25:09.699Z,2.20
2023-01-28T05:30:06.414Z,2.30
2023-01-28T05:32:33.484Z,2.30
2023-01-28T05:37:27.247Z,2.20
2023-01-28T05:52:10.408Z,2.20
2023-01-28T05:57:04.581Z,2.30
2023-01-28T06:01:58.553Z,2.30
2023-01-28T06:04:25.315Z,2.30
2023-01-28T06:11:46.571Z,2.20
2023-01-28T06:14:13.309Z,2.30
2023-01-28T06:19:07.183Z,2.30
2023-01-28T06:26:28.306Z,2.30
2023-01-28T06:31:22.208Z,2.30
2023-01-28T06:36:15.967Z,2.30
2023-01-28T06:46:04.086Z,2.30
2023-01-28T06:53:24.973Z,2.20
2023-01-28T06:55:51.650Z,2.10
2023-01-28T07:10:34.214Z,2.20
2023-01-28T07:25:18.073Z,2.30
2023-01-28T07:27:53.070Z,2.30
2023-01-28T07:30:21.050Z,2.20
2023-01-28T07:35:15.954Z,2.20
2023-01-28T07:45:05.264Z,2.10
2023-01-28T07:54:54.137Z,2.20
2023-01-28T07:59:53.530Z,2.40
2023-01-28T08:09:42.266Z,2.40
2023-01-28T08:14:36.138Z,2.50
2023-01-28T08:17:02.831Z,2.50
2023-01-28T08:21:56.576Z,2.50
2023-01-28T08:24:23.258Z,2.50
2023-01-28T08:44:00.369Z,2.40
2023-01-28T09:03:38.959Z,2.70
2023-01-28T09:11:00.587Z,2.80
2023-01-28T09:13:28.475Z,2.90
2023-01-28T09:20:49.400Z,2.90
2023-01-28T09:23:16.440Z,3.00
2023-01-28T09:33:07.057Z,3.00
2023-01-28T09:35:34.367Z,2.90
2023-01-28T09:40:37.988Z,2.80
2023-01-28T09:43:25.709Z,2.90
2023-01-28T09:45:55.589Z,2.90
2023-01-28T09:48:30.803Z,2.80
2023-01-28T09:53:40.871Z,2.90
2023-01-28T09:56:15.228Z,2.80
2023-01-28T09:58:43.245Z,2.80
2023-01-28T10:01:28.678Z,2.80
2023-01-28T10:04:29.180Z,2.80
2023-01-28T10:07:04.818Z,2.80
2023-01-28T10:09:55.113Z,4.20
2023-01-28T10:12:43.759Z,2.90
2023-01-28T10:15:25.810Z,2.90
2023-01-28T10:18:16.145Z,3.00
2023-01-28T10:20:49.652Z,3.10
2023-01-28T10:23:24.492Z,3.00
2023-01-28T10:28:25.435Z,2.90
2023-01-28T10:30:52.433Z,2.90
2023-01-28T10:33:39.991Z,2.90
2023-01-28T10:36:09.110Z,2.90
2023-01-28T10:38:36.332Z,3.10
2023-01-28T10:41:08.593Z,3.10
2023-01-28T10:43:41.696Z,3.20
2023-01-28T10:46:17.252Z,3.20
2023-01-28T10:48:57.980Z,3.40
2023-01-28T10:51:36.647Z,3.40
2023-01-28T10:54:04.423Z,3.40
2023-01-28T10:56:33.384Z,3.40
2023-01-28T10:59:19.782Z,3.10
2023-01-28T11:01:49.303Z,2.90
2023-01-28T11:04:30.232Z,3.00
2023-01-28T11:09:30.858Z,3.00
2023-01-28T11:11:59.231Z,2.90
2023-01-28T11:14:27.613Z,3.00
2023-01-28T11:16:57.751Z,2.90
2023-01-28T11:19:33.821Z,3.00
2023-01-28T11:22:01.115Z,3.10
2023-01-28T11:24:32.013Z,3.10
2023-01-28T11:27:08.357Z,3.10
2023-01-28T11:29:39.558Z,3.20
2023-01-28T11:32:18.992Z,3.20
2023-01-28T11:34:51.473Z,3.20
2023-01-28T11:37:22.465Z,3.30
2023-01-28T11:39:49.909Z,3.30
2023-01-28T11:42:19.203Z,3.30
2023-01-28T11:44:47.160Z,3.20
2023-01-28T11:47:25.100Z,3.20
2023-01-28T11:50:10.052Z,3.00
2023-01-28T11:53:07.831Z,3.00
2023-01-28T11:55:52.975Z,3.10
2023-01-28T12:00:58.423Z,3.10
2023-01-28T12:03:33.902Z,3.00
2023-01-28T12:06:32.003Z,3.10
2023-01-28T12:09:11.002Z,3.20
2023-01-28T12:12:12.718Z,3.30
2023-01-28T12:17:34.471Z,3.20
2023-01-28T12:20:28.291Z,3.30
2023-01-28T12:23:05.401Z,3.30
2023-01-28T12:26:10.311Z,3.30
2023-01-28T12:28:49.278Z,3.20
2023-01-28T12:31:35.875Z,1.80
2023-01-28T12:34:11.645Z,3.20
2023-01-28T12:36:57.192Z,3.00
2023-01-28T12:39:54.668Z,3.10
2023-01-28T12:42:35.201Z,3.30
2023-01-28T12:45:27.686Z,3.30
2023-01-28T12:48:02.437Z,2.40
2023-01-28T12:50:41.130Z,3.20
2023-01-28T12:53:28.444Z,3.10
2023-01-28T12:56:03.388Z,3.20
2023-01-28T12:58:47.639Z,3.20
2023-01-28T13:01:20.659Z,3.20
2023-01-28T13:04:02.682Z,3.30
2023-01-28T13:06:45.944Z,3.40
2023-01-28T13:09:19.414Z,-0.60
2023-01-28T13:11:49.661Z,3.40
2023-01-28T13:14:16.997Z,3.50
2023-01-28T13:16:44.110Z,3.50
2023-01-28T13:19:19.930Z,3.40
2023-01-28T13:26:48.171Z,3.30
2023-01-28T13:29:14.782Z,3.10
2023-01-28T13:31:44.236Z,3.10
2023-01-28T13:34:43.583Z,3.00
2023-01-28T13:37:25.083Z,2.90
2023-01-28T13:39:57.730Z,2.90
2023-01-28T13:44:54.450Z,2.80
2023-01-28T13:47:26.722Z,2.80
2023-01-28T13:50:01.579Z,2.80
2023-01-28T13:52:31.892Z,2.80
2023-01-28T13:57:44.513Z,2.90
2023-01-28T14:00:31.703Z,2.90
2023-01-28T14:03:11.209Z,2.90
2023-01-28T14:05:43.664Z,2.90
2023-01-28T14:08:19.154Z,3.00
2023-01-28T14:11:08.137Z,3.10
2023-01-28T14:13:43.448Z,3.20
2023-01-28T14:16:28.175Z,3.10
2023-01-28T14:18:59.513Z,3.10
2023-01-28T14:21:28.227Z,3.00
2023-01-28T14:23:57.675Z,3.10
2023-01-28T14:26:42.614Z,3.20
2023-01-28T14:29:27.688Z,3.40
2023-01-28T14:31:55.756Z,3.50
2023-01-28T14:34:29.963Z,3.20
2023-01-28T14:37:18.590Z,3.40
2023-01-28T14:39:46.952Z,3.30
2023-01-28T14:42:34.919Z,3.30
2023-01-28T14:45:08.118Z,3.20
2023-01-28T14:50:48.153Z,3.20
2023-01-28T14:53:26.158Z,3.10
2023-01-28T14:56:08.593Z,3.10
2023-01-28T14:58:49.028Z,3.00
2023-01-28T15:01:27.082Z,3.00
2023-01-28T15:03:54.223Z,2.90
2023-01-28T15:06:26.575Z,2.80
2023-01-28T15:08:53.872Z,2.70
2023-01-28T15:11:25.448Z,2.70
2023-01-28T15:16:24.519Z,2.60
2023-01-28T15:18:51.931Z,2.60
2023-01-28T15:21:23.545Z,2.50
2023-01-28T15:23:54.012Z,2.40
2023-01-28T15:26:22.366Z,2.30
2023-01-28T15:31:24.453Z,2.10
2023-01-28T15:34:12.176Z,2.10
2023-01-28T15:36:40.028Z,2.10
2023-01-28T15:39:14.771Z,2.10
2023-01-28T15:41:46.471Z,2.00
2023-01-28T15:44:24.050Z,2.00
2023-01-28T15:51:51.090Z,1.80
2023-01-28T15:56:45.102Z,1.60
2023-01-28T15:59:27.913Z,1.60
2023-01-28T16:02:21.002Z,1.50
2023-01-28T16:05:02.160Z,1.40
2023-01-28T16:07:32.325Z,1.50
2023-01-28T16:10:01.898Z,1.30
2023-01-28T16:15:01.835Z,1.30
2023-01-28T16:17:41.203Z,1.20
2023-01-28T16:20:19.292Z,1.20
2023-01-28T16:22:46.086Z,1.20
2023-01-28T16:25:21.655Z,1.20
2023-01-28T16:27:48.739Z,1.30
2023-01-28T16:30:16.590Z,1.20
2023-01-28T16:32:44.748Z,1.30
2023-01-28T16:35:15.762Z,1.30
2023-01-28T16:37:42.631Z,1.30
2023-01-28T16:40:13.236Z,1.20
2023-01-28T16:45:12.603Z,1.30
2023-01-28T16:50:06.672Z,1.40
2023-01-28T16:52:33.359Z,1.50
2023-01-28T16:55:00.153Z,1.50
2023-01-28T17:04:48.051Z,1.60
2023-01-28T17:09:41.803Z,1.60
2023-01-28T17:14:35.663Z,1.40
2023-01-28T17:26:53.839Z,1.20
2023-01-28T17:34:14.828Z,1.00
2023-01-28T17:36:41.549Z,0.90
2023-01-28T17:41:35.572Z,0.80
2023-01-28T17:44:04.418Z,0.70
2023-01-28T17:51:25.347Z,0.50
2023-01-28T17:53:53.257Z,0.40
2023-01-28T17:56:25.909Z,0.40
2023-01-28T17:58:54.566Z,0.40
2023-01-28T18:01:22.607Z,0.30
2023-01-28T18:06:16.584Z,0.30
2023-01-28T18:11:12.550Z,0.30
2023-01-28T18:13:41.046Z,0.30
2023-01-28T18:16:11.279Z,0.30
2023-01-28T18:21:06.965Z,0.50
2023-01-28T18:23:34.199Z,0.60
2023-01-28T18:26:04.321Z,0.60
2023-01-28T18:28:31.031Z,0.60
2023-01-28T18:31:07.742Z,0.50
2023-01-28T18:33:34.859Z,0.50
2023-01-28T18:36:01.614Z,0.60
2023-01-28T18:38:28.304Z,0.50
2023-01-28T18:40:56.576Z,0.50
2023-01-28T18:45:50.632Z,0.40
2023-01-28T18:48:18.692Z,0.40
2023-01-28T18:50:52.734Z,0.40
2023-01-28T19:00:41.303Z,0.40
2023-01-28T19:05:36.603Z,0.30
2023-01-28T19:08:05.137Z,0.30
2023-01-28T19:10:32.460Z,0.20
2023-01-28T19:12:59.143Z,0.10
2023-01-28T19:15:26.334Z,0.10
2023-01-28T19:17:53.168Z,0.10
2023-01-28T19:20:19.843Z,0.00
2023-01-28T19:22:46.608Z,0.10
2023-01-28T19:27:40.883Z,0.00
2023-01-28T19:30:08.412Z,0.10
2023-01-28T19:44:52.210Z,0.00
2023-01-28T19:47:18.930Z,-0.10
2023-01-28T19:57:06.873Z,-0.20
2023-01-28T19:59:33.561Z,-0.20
2023-01-28T20:02:00.267Z,-0.20
2023-01-28T20:06:54.098Z,-0.20
2023-01-28T20:11:48.257Z,-0.20
2023-01-28T20:19:19.842Z,-0.30
2023-01-28T20:21:47.034Z,-0.30
2023-01-28T20:24:15.044Z,-0.40
2023-01-28T20:26:43.399Z,-0.40
2023-01-28T20:29:18.021Z,-0.30
2023-01-28T20:31:44.861Z,-0.50
2023-01-28T20:34:19.770Z,-0.50
2023-01-28T20:36:46.855Z,-0.50
2023-01-28T20:39:14.179Z,-0.50
2023-01-28T20:41:40.858Z,-0.50
2023-01-28T20:46:36.667Z,-0.60
2023-01-28T20:49:06.071Z,-0.60
2023-01-28T20:51:35.835Z,-0.60
2023-01-28T20:59:03.440Z,-0.70
2023-01-28T21:01:33.612Z,-0.70
2023-01-28T21:06:28.758Z,-0.70
2023-01-28T21:08:55.511Z,-0.70
2023-01-28T21:11:23.512Z,-0.80
2023-01-28T21:16:18.409Z,-0.70
2023-01-28T21:18:45.312Z,-0.70
2023-01-28T21:21:29.975Z,-0.70
2023-01-28T21:24:00.294Z,-0.80
2023-01-28T21:26:27.166Z,-0.80
2023-01-28T21:31:25.324Z,-0.80
2023-01-28T21:33:54.942Z,-0.80
2023-01-28T21:36:22.461Z,-0.80
2023-01-28T21:38:54.918Z,-0.80
2023-01-28T21:41:21.907Z,-0.90
2023-01-28T21:43:53.824Z,-1.00
2023-01-28T21:46:21.934Z,-0.90
2023-01-28T21:48:48.735Z,-1.00
2023-01-28T21:54:01.694Z,-1.00
2023-01-28T21:59:14.130Z,-0.90
2023-01-28T22:06:35.099Z,-1.10
2023-01-28T22:11:31.399Z,-1.00
2023-01-28T22:18:52.301Z,-1.00
2023-01-28T22:26:13.431Z,-1.10
2023-01-28T22:31:13.940Z,-1.10
2023-01-28T22:33:41.276Z,-1.10
2023-01-28T22:36:12.741Z,-1.10
2023-01-28T22:41:08.717Z,-1.20
2023-01-28T22:43:35.775Z,-1.30
2023-01-28T22:46:04.000Z,-1.30
2023-01-28T22:48:31.037Z,-1.30
2023-01-28T22:51:03.159Z,-1.40
2023-01-28T22:53:30.103Z,-1.40
2023-01-28T22:55:57.152Z,-1.40
2023-01-28T23:03:18.368Z,-1.60
2023-01-28T23:08:12.465Z,-1.80
2023-01-28T23:10:52.153Z,-1.80
2023-01-28T23:13:22.076Z,-1.80
2023-01-28T23:16:08.713Z,-1.80
2023-01-28T23:21:34.939Z,-1.80
2023-01-28T23:26:53.359Z,-1.90
2023-01-28T23:29:26.156Z,-1.80
2023-01-28T23:31:56.241Z,-1.80
2023-01-28T23:36:50.693Z,-1.80
2023-01-28T23:39:17.485Z,-1.80
2023-01-28T23:44:11.308Z,-1.80
2023-01-28T23:46:40.102Z,-1.80
2023-01-28T23:51:36.382Z,-1.80
2023-01-28T23:56:30.215Z,-1.90
2023-01-28T23:58:57.258Z,-1.90
